Time;durP1;ratioP1;P1;durP2;ratioP2;P2;SDS_P1;SDS_P2;PMS_P1;PMS_P2;Temp;Humidity;BMP_temperature;BMP_pressure;BME280_temperature;BME280_humidity;BME280_pressure;Samples;Min_cycle;Max_cycle;Signal;HPM_P1;HPM_P2
2023/08/01 00:00:18;;;;;;;1.50;0.90;;;16.60;99.90;;;;;;5052859;28;20444;-61
2023/08/01 00:02:45;;;;;;;1.47;1.10;;;16.50;99.90;;;;;;5053161;28;20456;-61
2023/08/01 00:05:11;;;;;;;1.47;1.30;;;16.50;99.90;;;;;;5052852;28;20861;-61
2023/08/01 00:07:39;;;;;;;1.20;1.10;;;16.60;99.90;;;;;;5052924;28;20444;-62
2023/08/01 00:10:07;;;;;;;1.37;1.17;;;16.50;99.90;;;;;;5053168;28;20454;-61
2023/08/01 00:12:34;;;;;;;2.20;1.20;;;16.50;99.90;;;;;;5053108;28;20464;-62
2023/08/01 00:15:01;;;;;;;1.30;1.20;;;16.50;99.90;;;;;;5053246;28;20933;-62
2023/08/01 00:17:28;;;;;;;2.20;2.00;;;16.50;99.90;;;;;;5053488;28;20486;-60
2023/08/01 00:19:55;;;;;;;1.63;1.53;;;16.50;99.90;;;;;;5053467;28;20441;-61
2023/08/01 00:22:22;;;;;;;1.53;0.90;;;16.50;99.90;;;;;;5053801;28;20526;-61
2023/08/01 00:24:50;;;;;;;1.30;1.20;;;16.50;99.90;;;;;;5053186;28;20515;-60
2023/08/01 00:27:17;;;;;;;2.30;1.50;;;16.50;99.90;;;;;;5055415;28;20551;-62
2023/08/01 00:29:43;;;;;;;2.03;1.50;;;16.50;99.90;;;;;;5057043;28;20440;-61
2023/08/01 00:32:10;;;;;;;1.80;1.43;;;16.50;99.90;;;;;;5056894;28;20538;-62
2023/08/01 00:34:37;;;;;;;2.87;1.60;;;16.50;99.90;;;;;;5057308;28;20440;-61
2023/08/01 00:37:05;;;;;;;1.83;1.73;;;16.50;99.90;;;;;;5056814;28;20479;-63
2023/08/01 00:39:32;;;;;;;2.67;1.80;;;16.50;99.90;;;;;;5056980;28;20542;-61
2023/08/01 00:42:00;;;;;;;1.60;1.50;;;16.60;99.90;;;;;;5056805;28;20444;-62
2023/08/01 00:44:27;;;;;;;4.60;2.07;;;16.50;99.90;;;;;;5057347;28;20446;-62
2023/08/01 00:46:54;;;;;;;1.93;1.73;;;16.60;99.90;;;;;;5056711;28;20436;-61
2023/08/01 00:49:21;;;;;;;1.93;1.67;;;16.60;99.90;;;;;;5056703;28;20959;-60
2023/08/01 00:51:48;;;;;;;1.70;1.57;;;16.60;99.90;;;;;;5056597;28;20443;-62
2023/08/01 00:54:15;;;;;;;3.87;1.60;;;16.60;99.90;;;;;;5057193;28;20482;-61
2023/08/01 00:56:43;;;;;;;2.13;1.70;;;16.60;99.90;;;;;;5056821;28;20817;-61
2023/08/01 00:59:11;;;;;;;2.63;1.50;;;16.60;99.90;;;;;;5058104;28;20447;-61
2023/08/01 01:01:38;;;;;;;1.87;1.77;;;16.60;99.90;;;;;;5058468;28;20831;-61
2023/08/01 01:04:05;;;;;;;3.10;1.63;;;16.60;99.90;;;;;;5057812;28;20478;-61
2023/08/01 01:06:35;;;;;;;1.67;1.57;;;16.60;99.90;;;;;;5058168;28;20882;-61
2023/08/01 01:09:04;;;;;;;1.70;1.60;;;16.60;99.90;;;;;;5057361;28;20432;-62
2023/08/01 01:11:31;;;;;;;1.53;1.43;;;16.60;99.90;;;;;;5057358;28;20483;-59
2023/08/01 01:13:58;;;;;;;4.00;2.00;;;16.60;99.90;;;;;;5057993;28;20463;-61
2023/08/01 01:16:26;;;;;;;1.83;1.70;;;16.70;99.90;;;;;;5058204;28;20446;-62
2023/08/01 01:18:53;;;;;;;2.70;1.57;;;16.70;99.90;;;;;;5057763;28;20455;-61
2023/08/01 01:21:21;;;;;;;4.00;1.47;;;16.70;99.90;;;;;;5057918;28;20527;-61
2023/08/01 01:23:49;;;;;;;1.60;1.50;;;16.70;99.90;;;;;;5056622;28;20476;-62
2023/08/01 01:26:20;;;;;;;1.70;1.60;;;16.70;99.90;;;;;;5055818;28;20448;-64
2023/08/01 01:28:48;;;;;;;3.07;1.60;;;16.70;99.90;;;;;;5055899;28;20429;-63
2023/08/01 01:31:16;;;;;;;3.70;1.50;;;16.70;99.90;;;;;;5056442;28;20448;-64
2023/08/01 01:33:43;;;;;;;1.80;1.63;;;16.70;99.90;;;;;;5055820;28;20569;-62
2023/08/01 01:36:09;;;;;;;1.67;1.40;;;16.70;99.90;;;;;;5055818;28;20436;-63
2023/08/01 01:38:38;;;;;;;1.40;1.20;;;16.70;99.90;;;;;;5054705;28;21016;-63
2023/08/01 01:41:04;;;;;;;1.47;1.37;;;16.70;99.90;;;;;;5056234;28;20432;-63
2023/08/01 01:43:31;;;;;;;2.87;1.27;;;16.70;99.90;;;;;;5055584;28;20464;-63
2023/08/01 01:45:58;;;;;;;1.53;1.43;;;16.70;99.90;;;;;;5055526;28;20444;-62
2023/08/01 01:48:25;;;;;;;1.43;1.23;;;16.70;99.90;;;;;;5055762;28;20443;-63
2023/08/01 01:50:51;;;;;;;1.33;1.23;;;16.70;99.90;;;;;;5055305;28;20451;-63
2023/08/01 01:53:18;;;;;;;1.00;0.90;;;16.70;99.90;;;;;;5055299;28;20460;-63
2023/08/01 01:55:46;;;;;;;1.30;1.20;;;16.70;99.90;;;;;;5055147;28;20942;-62
2023/08/01 01:58:13;;;;;;;1.70;1.20;;;16.70;99.90;;;;;;5055231;28;20849;-63
2023/08/01 02:00:40;;;;;;;1.70;1.20;;;16.70;99.90;;;;;;5055454;28;20448;-64
2023/08/01 02:03:10;;;;;;;1.30;1.20;;;16.70;99.90;;;;;;5055125;28;20464;-63
2023/08/01 02:05:36;;;;;;;1.60;0.90;;;16.70;99.90;;;;;;5054880;28;20459;-63
2023/08/01 02:08:04;;;;;;;4.50;1.50;;;16.70;99.90;;;;;;5055220;28;20467;-61
2023/08/01 02:10:31;;;;;;;1.63;1.20;;;16.70;99.90;;;;;;5055219;28;20444;-62
2023/08/01 02:13:00;;;;;;;1.80;1.40;;;16.70;99.90;;;;;;5055041;28;20463;-63
2023/08/01 02:15:27;;;;;;;4.23;1.07;;;16.70;99.90;;;;;;5055159;28;20539;-61
2023/08/01 02:17:53;;;;;;;3.57;1.43;;;16.70;99.90;;;;;;5055123;28;20487;-60
2023/08/01 02:20:20;;;;;;;1.10;1.00;;;16.70;99.90;;;;;;5054915;28;20988;-61
2023/08/01 02:22:47;;;;;;;3.00;1.23;;;16.70;99.90;;;;;;5054634;28;20494;-61
2023/08/01 02:25:14;;;;;;;1.73;1.40;;;16.70;99.90;;;;;;5054810;28;20448;-62
2023/08/01 02:27:41;;;;;;;1.70;1.10;;;16.70;99.90;;;;;;5054781;28;20440;-63
2023/08/01 02:30:11;;;;;;;1.63;0.80;;;16.70;99.90;;;;;;5054902;28;20441;-63
2023/08/01 02:32:38;;;;;;;1.17;1.07;;;16.70;99.90;;;;;;5054647;28;20468;-62
2023/08/01 02:35:06;;;;;;;2.83;1.33;;;16.60;99.90;;;;;;5054794;28;20852;-63
2023/08/01 02:37:32;;;;;;;1.67;1.00;;;16.60;99.90;;;;;;5054635;28;20488;-62
2023/08/01 02:39:59;;;;;;;3.13;0.83;;;16.60;99.90;;;;;;5054640;28;20539;-62
2023/08/01 02:42:26;;;;;;;0.80;0.80;;;16.60;99.90;;;;;;5054478;28;20464;-62
2023/08/01 02:44:53;;;;;;;1.13;1.03;;;16.60;99.90;;;;;;5054341;28;20443;-62
2023/08/01 02:47:21;;;;;;;1.33;1.13;;;16.50;99.90;;;;;;5054364;28;20451;-62
2023/08/01 02:49:48;;;;;;;5.60;1.30;;;16.50;99.90;;;;;;5054134;28;20446;-62
2023/08/01 02:52:14;;;;;;;1.23;1.03;;;16.50;99.90;;;;;;5053677;28;20467;-62
2023/08/01 02:54:41;;;;;;;1.30;0.97;;;16.50;99.90;;;;;;5054304;28;20448;-63
2023/08/01 02:57:08;;;;;;;2.30;1.10;;;16.40;99.90;;;;;;5054207;28;20484;-62
2023/08/01 02:59:35;;;;;;;2.13;1.10;;;16.40;99.90;;;;;;5054284;28;20463;-61
2023/08/01 03:02:02;;;;;;;2.43;1.20;;;16.40;99.90;;;;;;5054263;28;20440;-62
2023/08/01 03:04:30;;;;;;;2.40;0.90;;;16.40;99.90;;;;;;5053821;28;20933;-62
2023/08/01 03:06:57;;;;;;;1.83;0.90;;;16.40;99.90;;;;;;5053857;28;20435;-63
2023/08/01 03:09:24;;;;;;;1.70;1.40;;;16.40;99.90;;;;;;5053970;28;20819;-63
2023/08/01 03:11:51;;;;;;;2.83;0.90;;;16.40;99.90;;;;;;5053896;28;20443;-64
2023/08/01 03:14:17;;;;;;;1.30;1.20;;;16.40;99.90;;;;;;5053939;28;20956;-62
2023/08/01 03:16:44;;;;;;;1.10;1.00;;;16.30;99.90;;;;;;5053878;28;20459;-63
2023/08/01 03:19:11;;;;;;;2.80;1.23;;;16.30;99.90;;;;;;5053549;28;21005;-62
2023/08/01 03:21:39;;;;;;;2.47;1.20;;;16.30;99.90;;;;;;5053711;28;20452;-62
2023/08/01 03:24:08;;;;;;;1.47;1.13;;;16.30;99.90;;;;;;5053278;28;20472;-61
2023/08/01 03:26:35;;;;;;;1.37;1.17;;;16.30;99.90;;;;;;5053573;28;20445;-61
2023/08/01 03:29:02;;;;;;;1.13;1.03;;;16.30;99.90;;;;;;5053511;28;20440;-63
2023/08/01 03:31:30;;;;;;;2.30;1.17;;;16.20;99.90;;;;;;5053430;28;20451;-62
2023/08/01 03:33:58;;;;;;;2.37;1.30;;;16.20;99.90;;;;;;5053266;28;20456;-62
2023/08/01 03:36:25;;;;;;;1.10;1.00;;;16.20;99.90;;;;;;5053538;28;20471;-62
2023/08/01 03:38:53;;;;;;;2.20;0.93;;;16.20;99.90;;;;;;5053183;28;20476;-62
2023/08/01 03:41:20;;;;;;;2.80;0.90;;;16.20;99.90;;;;;;5052944;28;21017;-61
2023/08/01 03:43:46;;;;;;;1.70;1.37;;;16.20;99.90;;;;;;5053262;28;21007;-62
2023/08/01 03:46:13;;;;;;;2.30;1.17;;;16.20;99.90;;;;;;5053519;28;20446;-61
2023/08/01 03:48:40;;;;;;;1.53;1.10;;;16.20;99.90;;;;;;5054309;28;20443;-60
2023/08/01 03:51:07;;;;;;;3.73;1.20;;;16.20;99.90;;;;;;5053650;28;20932;-61
2023/08/01 03:53:34;;;;;;;1.77;0.90;;;16.20;99.90;;;;;;5053076;28;20468;-62
2023/08/01 03:56:02;;;;;;;2.43;1.10;;;16.20;99.90;;;;;;5053012;28;20535;-62
2023/08/01 03:58:29;;;;;;;1.50;1.20;;;16.20;99.90;;;;;;5053283;28;20471;-62
2023/08/01 04:00:56;;;;;;;1.30;1.07;;;16.20;99.90;;;;;;5052798;28;20456;-61
2023/08/01 04:03:22;;;;;;;1.60;0.83;;;16.20;99.90;;;;;;5053216;28;20981;-62
2023/08/01 04:05:49;;;;;;;1.47;0.90;;;16.20;99.90;;;;;;5054478;28;20534;-62
2023/08/01 04:08:16;;;;;;;3.27;0.97;;;16.20;99.90;;;;;;5054011;28;20527;-62
2023/08/01 04:12:01;;;;;;;1.13;1.03;;;16.20;99.90;;;;;;5090743;27;20572;-61
2023/08/01 04:14:28;;;;;;;0.77;0.77;;;16.20;99.90;;;;;;5090415;28;20446;-60
2023/08/01 04:16:55;;;;;;;1.00;0.90;;;16.20;99.90;;;;;;5090707;28;20443;-60
2023/08/01 04:19:22;;;;;;;1.30;0.87;;;16.20;99.90;;;;;;5090866;28;20444;-61
2023/08/01 04:21:49;;;;;;;2.77;1.07;;;16.20;99.90;;;;;;5090800;28;20521;-63
2023/08/01 04:24:15;;;;;;;1.87;1.00;;;16.20;99.90;;;;;;5090160;28;20965;-63
2023/08/01 04:26:42;;;;;;;1.80;1.20;;;16.20;99.90;;;;;;5090035;28;20944;-61
2023/08/01 04:29:10;;;;;;;2.10;1.23;;;16.20;99.90;;;;;;5090288;28;20831;-62
2023/08/01 04:31:37;;;;;;;3.13;1.07;;;16.20;99.90;;;;;;5090219;28;20481;-61
2023/08/01 04:34:04;;;;;;;1.63;1.00;;;16.20;99.90;;;;;;5089771;28;20469;-62
2023/08/01 04:36:31;;;;;;;5.23;2.20;;;16.20;99.90;;;;;;5090134;28;20438;-62
2023/08/01 04:38:57;;;;;;;1.13;0.90;;;16.20;99.90;;;;;;5089969;28;20448;-62
2023/08/01 04:41:24;;;;;;;4.53;1.20;;;16.20;99.90;;;;;;5089910;28;20438;-62
2023/08/01 04:43:51;;;;;;;1.90;1.00;;;16.20;99.90;;;;;;5089918;28;20462;-63
2023/08/01 04:46:19;;;;;;;1.50;1.03;;;16.20;99.90;;;;;;5089934;28;20435;-61
2023/08/01 04:48:46;;;;;;;2.90;0.90;;;16.20;99.90;;;;;;5089986;28;20442;-64
2023/08/01 04:51:13;;;;;;;4.40;1.20;;;16.20;99.90;;;;;;5089503;28;20471;-63
2023/08/01 04:53:39;;;;;;;2.00;1.20;;;16.20;99.90;;;;;;5089423;28;20467;-62
2023/08/01 04:56:06;;;;;;;2.10;1.63;;;16.10;99.90;;;;;;5089340;28;20438;-61
2023/08/01 04:58:33;;;;;;;3.80;1.10;;;16.10;99.90;;;;;;5089504;28;20449;-63
2023/08/01 05:01:00;;;;;;;1.30;1.20;;;16.10;99.90;;;;;;5089410;28;20546;-64
2023/08/01 05:03:28;;;;;;;3.40;1.33;;;16.10;99.90;;;;;;5090060;28;20477;-62
2023/08/01 05:05:54;;;;;;;1.10;1.00;;;16.10;99.90;;;;;;5089602;28;20443;-63
2023/08/01 05:08:21;;;;;;;1.40;1.27;;;16.10;99.90;;;;;;5089870;28;20808;-63
2023/08/01 05:10:48;;;;;;;4.67;1.37;;;16.00;99.90;;;;;;5089662;28;20505;-62
2023/08/01 05:13:15;;;;;;;2.70;1.80;;;16.00;99.90;;;;;;5089576;28;20469;-62
2023/08/01 05:15:44;;;;;;;1.47;1.37;;;16.10;99.90;;;;;;5089699;28;20840;-64
2023/08/01 05:18:11;;;;;;;1.50;1.17;;;16.10;99.90;;;;;;5089283;28;20446;-63
2023/08/01 05:20:39;;;;;;;1.47;1.30;;;16.10;99.90;;;;;;5089228;28;20439;-63
2023/08/01 05:23:06;;;;;;;1.47;1.37;;;16.10;99.90;;;;;;5077994;28;20461;-64
2023/08/01 05:25:33;;;;;;;5.47;1.47;;;16.20;99.90;;;;;;5075643;28;20446;-63
2023/08/01 05:27:59;;;;;;;1.70;1.40;;;16.20;99.90;;;;;;5075467;28;20439;-63
2023/08/01 05:30:26;;;;;;;2.20;1.50;;;16.20;99.90;;;;;;5075543;28;20483;-65
2023/08/01 05:32:53;;;;;;;2.80;1.40;;;16.20;99.90;;;;;;5075513;28;20473;-65
2023/08/01 05:35:21;;;;;;;1.47;1.33;;;16.30;99.90;;;;;;5075163;28;20983;-64
2023/08/01 05:37:49;;;;;;;1.37;1.10;;;16.30;99.90;;;;;;5075071;28;20834;-63
2023/08/01 05:40:16;;;;;;;1.87;1.50;;;16.40;99.90;;;;;;5075740;28;20449;-62
2023/08/01 05:42:42;;;;;;;1.80;1.50;;;16.50;99.90;;;;;;5075510;28;20473;-63
2023/08/01 05:45:11;;;;;;;2.57;1.70;;;16.50;99.90;;;;;;5075659;28;20447;-62
2023/08/01 05:47:39;;;;;;;1.97;1.43;;;16.60;99.90;;;;;;5076462;28;20447;-63
2023/08/01 05:50:07;;;;;;;2.80;1.80;;;16.70;99.90;;;;;;5076387;28;20485;-64
2023/08/01 05:52:34;;;;;;;3.63;1.90;;;16.70;99.90;;;;;;5076090;28;20467;-63
2023/08/01 05:55:03;;;;;;;2.50;2.20;;;16.80;99.90;;;;;;5075946;28;20448;-63
2023/08/01 05:57:30;;;;;;;2.70;2.10;;;16.80;99.90;;;;;;5076865;28;20553;-63
2023/08/01 05:59:57;;;;;;;3.57;2.00;;;17.00;99.90;;;;;;5080734;28;20948;-62
2023/08/01 06:02:24;;;;;;;2.40;2.00;;;17.00;99.90;;;;;;5080701;28;20455;-61
2023/08/01 06:04:51;;;;;;;3.73;2.77;;;17.10;99.90;;;;;;5079743;28;20447;-63
2023/08/01 06:07:22;;;;;;;2.70;2.40;;;17.10;99.90;;;;;;5078917;28;20504;-63
2023/08/01 06:09:50;;;;;;;3.53;2.50;;;17.20;99.90;;;;;;5075073;28;20428;-62
2023/08/01 06:12:19;;;;;;;3.50;3.10;;;17.20;99.90;;;;;;5074939;28;20896;-61
2023/08/01 06:14:46;;;;;;;2.60;2.40;;;17.20;99.90;;;;;;5075001;28;20488;-61
2023/08/01 06:17:12;;;;;;;3.50;3.20;;;17.30;99.90;;;;;;5075342;28;20507;-61
2023/08/01 06:19:39;;;;;;;3.00;2.60;;;17.30;99.90;;;;;;5074827;28;20449;-61
2023/08/01 06:22:06;;;;;;;4.33;2.87;;;17.20;99.90;;;;;;5075094;28;20918;-61
2023/08/01 06:24:33;;;;;;;4.77;3.40;;;17.10;99.90;;;;;;5075008;28;20471;-61
2023/08/01 06:27:00;;;;;;;2.80;2.33;;;17.10;99.90;;;;;;5074691;28;20454;-61
2023/08/01 06:29:28;;;;;;;2.87;2.57;;;17.10;99.90;;;;;;5074042;28;20804;-61
2023/08/01 06:31:55;;;;;;;3.50;3.17;;;17.00;99.90;;;;;;5074970;28;20504;-62
2023/08/01 06:34:21;;;;;;;3.73;3.23;;;16.90;99.90;;;;;;5073083;28;20762;-61
2023/08/01 06:36:49;;;;;;;3.67;2.87;;;17.00;99.90;;;;;;5074474;28;20771;-61
2023/08/01 06:39:15;;;;;;;3.57;2.93;;;17.00;99.90;;;;;;5074710;28;20447;-62
2023/08/01 06:41:42;;;;;;;4.73;3.60;;;17.00;99.90;;;;;;5074492;28;20447;-62
2023/08/01 06:44:09;;;;;;;4.30;2.80;;;17.00;99.90;;;;;;5074289;28;20467;-62
2023/08/01 06:46:37;;;;;;;6.20;4.50;;;17.10;99.90;;;;;;5074468;28;20816;-61
2023/08/01 06:49:04;;;;;;;4.93;3.00;;;17.20;99.90;;;;;;5074393;28;20610;-61
2023/08/01 06:51:31;;;;;;;4.90;3.70;;;17.30;99.90;;;;;;5073896;28;21030;-62
2023/08/01 06:53:57;;;;;;;4.10;3.40;;;17.30;99.90;;;;;;5073966;28;20964;-62
2023/08/01 06:56:24;;;;;;;3.73;3.20;;;17.30;99.90;;;;;;5074074;28;20448;-62
2023/08/01 06:58:51;;;;;;;7.90;3.73;;;17.30;99.90;;;;;;5073932;28;20446;-63
2023/08/01 07:01:18;;;;;;;3.23;2.77;;;17.30;99.90;;;;;;5074126;28;20435;-61
2023/08/01 07:03:46;;;;;;;4.57;3.97;;;17.30;99.90;;;;;;5073864;28;20841;-62
2023/08/01 07:06:13;;;;;;;9.30;4.53;;;17.30;99.90;;;;;;5073304;28;20450;-62
2023/08/01 07:08:40;;;;;;;4.70;3.37;;;17.30;99.90;;;;;;5073617;28;20443;-63
2023/08/01 07:11:06;;;;;;;6.97;3.50;;;17.30;99.90;;;;;;5073137;28;20475;-61
2023/08/01 07:13:33;;;;;;;5.47;3.60;;;17.40;99.90;;;;;;5073334;28;21012;-62
2023/08/01 07:16:00;;;;;;;5.23;4.23;;;17.40;99.90;;;;;;5073239;28;20448;-63
2023/08/01 07:18:27;;;;;;;6.43;4.17;;;17.50;99.90;;;;;;5073844;28;20885;-62
2023/08/01 07:21:02;;;;;;;6.60;3.57;;;17.50;99.90;;;;;;5073830;28;20449;-62
2023/08/01 07:23:29;;;;;;;5.00;4.27;;;17.60;99.90;;;;;;5074174;28;20488;-62
2023/08/01 07:25:55;;;;;;;5.40;4.17;;;17.70;99.90;;;;;;5073570;28;20443;-62
2023/08/01 07:28:22;;;;;;;7.20;4.07;;;17.70;99.90;;;;;;5073718;28;20428;-63
2023/08/01 07:30:49;;;;;;;4.70;4.10;;;17.80;99.90;;;;;;5073655;28;20448;-61
2023/08/01 07:33:16;;;;;;;4.50;3.80;;;17.80;99.90;;;;;;5073701;28;20837;-62
2023/08/01 07:35:42;;;;;;;5.23;4.73;;;17.80;99.90;;;;;;5074017;28;20439;-62
2023/08/01 07:38:11;;;;;;;7.10;4.73;;;17.90;99.90;;;;;;5073688;28;20435;-61
2023/08/01 07:40:38;;;;;;;10.00;4.73;;;18.00;99.90;;;;;;5073357;28;20443;-62
2023/08/01 07:43:04;;;;;;;5.10;4.40;;;18.00;99.90;;;;;;5073319;28;20463;-63
2023/08/01 07:45:34;;;;;;;5.77;4.70;;;18.10;99.90;;;;;;5073471;28;20445;-63
2023/08/01 07:48:01;;;;;;;6.17;4.70;;;18.10;99.90;;;;;;5073579;28;20457;-62
2023/08/01 07:50:28;;;;;;;6.40;4.53;;;18.20;99.90;;;;;;5074034;28;20443;-62
2023/08/01 07:52:55;;;;;;;6.37;4.13;;;18.20;99.90;;;;;;5072842;28;20483;-62
2023/08/01 07:55:23;;;;;;;5.63;4.40;;;18.20;99.90;;;;;;5073365;28;20449;-62
2023/08/01 07:57:50;;;;;;;8.20;4.67;;;18.10;99.90;;;;;;5073191;28;20443;-62
2023/08/01 08:00:17;;;;;;;8.10;4.63;;;18.10;99.90;;;;;;5073154;28;20442;-61
2023/08/01 08:02:45;;;;;;;7.10;4.50;;;18.10;99.90;;;;;;5073962;28;20544;-62
2023/08/01 08:05:12;;;;;;;5.47;4.30;;;18.20;99.90;;;;;;5073259;28;20443;-62
2023/08/01 08:07:39;;;;;;;5.97;4.33;;;18.20;99.90;;;;;;5072752;28;20441;-62
2023/08/01 08:10:07;;;;;;;6.97;4.60;;;18.30;99.90;;;;;;5073732;28;20457;-62
2023/08/01 08:12:35;;;;;;;6.07;4.63;;;18.40;99.90;;;;;;5072901;28;20494;-62
2023/08/01 08:15:02;;;;;;;6.80;4.40;;;18.40;99.90;;;;;;5072652;28;20435;-62
2023/08/01 08:17:29;;;;;;;5.17;4.30;;;18.50;99.90;;;;;;5072691;28;20465;-61
2023/08/01 08:19:56;;;;;;;8.00;3.97;;;18.60;99.90;;;;;;5072749;28;20443;-61
2023/08/01 08:22:23;;;;;;;3.93;3.50;;;18.80;99.90;;;;;;5072465;28;20469;-62
2023/08/01 08:24:50;;;;;;;7.47;4.13;;;18.90;99.90;;;;;;5072638;28;20463;-62
2023/08/01 08:27:16;;;;;;;8.10;3.80;;;19.10;99.90;;;;;;5072685;28;20812;-62
2023/08/01 08:29:44;;;;;;;4.50;3.63;;;19.20;99.90;;;;;;5072850;28;20440;-62
2023/08/01 08:32:11;;;;;;;5.63;3.67;;;19.10;99.90;;;;;;5072335;28;20578;-62
2023/08/01 08:34:39;;;;;;;8.30;3.93;;;19.10;99.90;;;;;;5072932;28;20442;-60
2023/08/01 08:37:06;;;;;;;6.43;4.03;;;19.20;99.90;;;;;;5072973;28;20475;-61
2023/08/01 08:39:33;;;;;;;5.67;3.30;;;19.30;99.90;;;;;;5072695;28;20441;-62
2023/08/01 08:42:01;;;;;;;4.60;3.87;;;19.40;99.90;;;;;;5072534;28;20786;-62
2023/08/01 08:44:29;;;;;;;5.33;3.00;;;19.60;99.90;;;;;;5072328;28;20443;-63
2023/08/01 08:47:03;;;;;;;3.90;2.80;;;19.70;99.90;;;;;;5072334;28;20444;-60
2023/08/01 08:49:32;;;;;;;3.93;2.93;;;19.90;99.90;;;;;;5072428;28;20438;-63
2023/08/01 08:52:00;;;;;;;4.33;2.80;;;20.20;99.90;;;;;;5071760;28;21019;-62
2023/08/01 08:54:27;;;;;;;4.83;2.83;;;20.10;99.90;;;;;;5072228;28;20534;-62
2023/08/01 08:56:55;;;;;;;3.13;2.70;;;20.00;99.90;;;;;;5073023;28;20443;-62
2023/08/01 08:59:22;;;;;;;6.60;3.60;;;19.90;99.90;;;;;;5076254;28;20522;-63
2023/08/01 09:01:49;;;;;;;5.17;3.17;;;19.60;99.90;;;;;;5076189;28;20458;-62
2023/08/01 09:04:17;;;;;;;3.90;2.77;;;19.60;99.90;;;;;;5076355;28;20459;-62
2023/08/01 09:06:47;;;;;;;4.00;2.77;;;19.50;99.90;;;;;;5075904;28;20447;-62
2023/08/01 09:09:14;;;;;;;2.83;2.20;;;19.60;99.90;;;;;;5076145;28;20940;-61
2023/08/01 09:11:46;;;;;;;3.73;2.63;;;19.70;99.90;;;;;;5075783;28;21014;-60
2023/08/01 09:14:14;;;;;;;3.70;3.30;;;19.80;99.90;;;;;;5076155;28;20428;-62
2023/08/01 09:16:41;;;;;;;5.90;3.20;;;20.00;99.90;;;;;;5075800;28;20439;-62
2023/08/01 09:19:08;;;;;;;5.10;2.90;;;20.20;99.90;;;;;;5075871;28;20445;-61
2023/08/01 09:21:38;;;;;;;4.63;2.70;;;20.30;99.90;;;;;;5075867;28;20851;-61
2023/08/01 09:24:12;;;;;;;6.43;3.13;;;20.50;99.90;;;;;;5075882;28;20552;-63
2023/08/01 09:26:39;;;;;;;3.83;2.40;;;20.60;99.90;;;;;;5076137;28;20441;-61
2023/08/01 09:29:06;;;;;;;3.57;2.40;;;20.90;99.90;;;;;;5075644;28;20904;-62
2023/08/01 09:31:34;;;;;;;4.07;2.50;;;21.20;99.90;;;;;;5077727;28;20851;-62
2023/08/01 09:34:03;;;;;;;3.83;2.70;;;21.20;99.90;;;;;;5076093;28;20465;-62
2023/08/01 09:36:31;;;;;;;2.40;1.73;;;21.30;99.90;;;;;;5075280;28;20956;-63
2023/08/01 09:39:03;;;;;;;2.80;2.30;;;21.30;97.90;;;;;;5075514;28;20444;-62
2023/08/01 09:41:31;;;;;;;3.87;2.63;;;21.30;97.70;;;;;;5075807;28;20442;-62
2023/08/01 09:43:58;;;;;;;3.93;2.30;;;21.30;97.90;;;;;;5075006;28;20999;-63
2023/08/01 09:46:26;;;;;;;3.57;2.47;;;21.40;97.00;;;;;;5075006;28;21006;-63
2023/08/01 09:51:46;;;;;;;4.47;2.40;;;21.50;95.60;;;;;;5068456;28;20449;-62
2023/08/01 09:54:14;;;;;;;4.40;2.23;;;21.30;94.80;;;;;;5075361;28;20455;-62
2023/08/01 09:56:44;;;;;;;3.77;2.20;;;21.10;95.60;;;;;;5074836;28;20814;-62
2023/08/01 09:59:12;;;;;;;3.33;1.83;;;21.00;95.30;;;;;;5075006;28;20447;-62
2023/08/01 10:01:41;;;;;;;3.50;2.43;;;21.00;94.00;;;;;;5074664;28;20459;-61
2023/08/01 10:04:09;;;;;;;3.20;2.00;;;21.10;93.40;;;;;;5074997;28;20459;-62
2023/08/01 10:06:39;;;;;;;2.93;1.77;;;21.30;92.60;;;;;;5075076;28;20445;-61
2023/08/01 10:09:06;;;;;;;3.60;2.67;;;21.30;91.90;;;;;;5074704;28;20454;-62
2023/08/01 10:11:36;;;;;;;4.50;2.30;;;21.30;92.20;;;;;;5074562;28;20466;-61
2023/08/01 10:14:04;;;;;;;3.63;2.13;;;21.30;92.60;;;;;;5074484;28;20548;-62
2023/08/01 10:16:31;;;;;;;4.67;2.50;;;21.50;92.90;;;;;;5076741;28;20448;-62
2023/08/01 10:19:00;;;;;;;2.47;1.60;;;21.50;92.20;;;;;;5074587;28;20471;-61
2023/08/01 10:21:27;;;;;;;3.50;1.67;;;21.40;91.70;;;;;;5075439;28;20566;-62
2023/08/01 10:23:55;;;;;;;3.10;1.90;;;21.40;91.30;;;;;;5074528;28;21009;-63
2023/08/01 10:26:22;;;;;;;3.03;1.80;;;21.40;90.50;;;;;;5073985;28;20533;-63
2023/08/01 10:28:53;;;;;;;2.63;2.07;;;21.30;89.20;;;;;;5075128;28;21167;-62
2023/08/01 10:31:22;;;;;;;5.10;2.00;;;21.50;89.20;;;;;;5074179;28;20775;-61
2023/08/01 10:33:50;;;;;;;4.30;2.23;;;21.80;87.90;;;;;;5073989;28;20539;-61
2023/08/01 10:36:18;;;;;;;5.20;2.17;;;22.00;86.50;;;;;;5073462;28;20537;-62
2023/08/01 10:38:49;;;;;;;4.23;1.70;;;22.30;85.00;;;;;;5074212;28;20595;-62
2023/08/01 10:41:25;;;;;;;3.87;2.00;;;22.20;84.20;;;;;;5073775;28;20974;-62
2023/08/01 10:44:04;;;;;;;4.20;2.30;;;22.30;83.70;;;;;;5073990;28;20849;-63
2023/08/01 10:46:46;;;;;;;3.73;2.23;;;22.40;82.40;;;;;;5074054;28;20442;-62
2023/08/01 10:49:13;;;;;;;4.20;2.00;;;22.50;81.40;;;;;;5074094;28;20748;-62
2023/08/01 10:51:40;;;;;;;4.67;2.40;;;22.50;81.70;;;;;;5073687;28;20805;-63
2023/08/01 10:54:07;;;;;;;5.03;2.60;;;22.60;80.80;;;;;;5073785;28;20838;-62
2023/08/01 10:56:34;;;;;;;3.77;1.83;;;22.60;80.90;;;;;;5073715;28;20439;-63
2023/08/01 10:59:06;;;;;;;4.43;2.20;;;22.70;80.60;;;;;;5073673;28;20447;-61
2023/08/01 11:01:44;;;;;;;3.10;1.97;;;22.70;78.50;;;;;;5073546;28;20506;-62
2023/08/01 11:04:15;;;;;;;3.23;2.30;;;22.60;77.80;;;;;;5073891;28;20423;-64
2023/08/01 11:06:45;;;;;;;5.30;2.53;;;22.70;78.40;;;;;;5073496;28;20442;-62
2023/08/01 11:09:19;;;;;;;4.23;2.20;;;22.90;77.50;;;;;;5073460;28;20447;-60
2023/08/01 11:11:49;;;;;;;4.10;2.70;;;23.20;77.10;;;;;;5073425;28;20556;-62
2023/08/01 11:14:19;;;;;;;3.97;2.33;;;23.40;76.50;;;;;;5074059;28;20436;-64
2023/08/01 11:16:47;;;;;;;3.40;1.83;;;23.30;75.30;;;;;;5073888;28;20447;-62
2023/08/01 11:19:22;;;;;;;5.87;2.23;;;23.20;75.40;;;;;;5075060;28;20496;-64
2023/08/01 11:21:48;;;;;;;3.93;2.00;;;23.30;75.60;;;;;;5073915;28;20438;-63
2023/08/01 11:24:16;;;;;;;4.13;1.87;;;23.40;74.80;;;;;;5073520;28;20465;-62
2023/08/01 11:26:44;;;;;;;5.00;1.70;;;23.60;74.00;;;;;;5073650;28;20436;-63
2023/08/01 11:29:12;;;;;;;2.73;1.77;;;23.90;71.80;;;;;;5073659;28;20442;-64
2023/08/01 11:31:40;;;;;;;1.70;1.60;;;23.90;69.70;;;;;;5073650;28;20455;-62
2023/08/01 11:34:09;;;;;;;3.20;1.83;;;23.90;68.50;;;;;;5074089;28;20488;-62
2023/08/01 11:36:54;;;;;;;1.90;1.43;;;23.80;68.10;;;;;;5079058;28;20512;-59
2023/08/01 11:39:22;;;;;;;3.30;2.00;;;23.50;67.90;;;;;;5073917;28;20444;-63
2023/08/01 11:41:49;;;;;;;4.10;2.17;;;23.10;68.50;;;;;;5073691;28;20435;-63
2023/08/01 11:44:16;;;;;;;4.63;3.37;;;22.60;70.20;;;;;;5077970;28;20507;-62
2023/08/01 11:46:44;;;;;;;3.70;1.80;;;22.10;72.50;;;;;;5073518;28;20435;-62
2023/08/01 11:49:15;;;;;;;4.67;2.40;;;21.30;80.00;;;;;;5076223;28;20457;-62
2023/08/01 11:51:43;;;;;;;5.00;2.93;;;20.30;88.70;;;;;;5073327;28;20422;-63
2023/08/01 11:54:11;;;;;;;4.13;2.97;;;19.60;96.00;;;;;;5072908;28;20483;-62
2023/08/01 11:56:38;;;;;;;3.80;2.93;;;19.20;99.90;;;;;;5072863;28;20450;-60
2023/08/01 11:59:13;;;;;;;5.43;2.90;;;18.90;99.90;;;;;;5073104;28;20444;-62
2023/08/01 12:01:40;;;;;;;3.90;2.97;;;18.90;99.90;;;;;;5073282;28;20442;-63
2023/08/01 12:04:09;;;;;;;4.57;2.87;;;18.90;99.90;;;;;;5077824;28;20459;-61
2023/08/01 12:06:37;;;;;;;4.13;2.90;;;19.20;99.90;;;;;;5074896;28;20449;-62
2023/08/01 12:09:33;;;;;;;4.30;3.10;;;19.50;99.90;;;;;;5078768;28;20447;-59
2023/08/01 12:12:00;;;;;;;4.60;3.40;;;19.80;99.90;;;;;;5075402;28;20459;-62
2023/08/01 12:14:28;;;;;;;3.50;2.63;;;20.30;99.90;;;;;;5076694;28;20566;-61
2023/08/01 12:16:55;;;;;;;3.60;2.40;;;20.60;99.90;;;;;;5076872;28;20545;-62
2023/08/01 12:19:24;;;;;;;3.20;2.10;;;20.90;99.90;;;;;;5076208;28;20522;-61
2023/08/01 12:21:50;;;;;;;4.80;2.67;;;21.10;99.90;;;;;;5072447;28;20948;-63
2023/08/01 12:24:17;;;;;;;2.80;2.47;;;21.70;99.90;;;;;;5072697;28;20466;-63
2023/08/01 12:26:44;;;;;;;3.83;2.60;;;22.50;97.70;;;;;;5072493;28;20443;-63
2023/08/01 12:29:11;;;;;;;5.30;3.00;;;23.10;94.00;;;;;;5072611;28;20445;-60
2023/08/01 12:31:38;;;;;;;3.47;2.30;;;22.90;92.50;;;;;;5072584;28;21088;-63
2023/08/01 12:34:05;;;;;;;2.53;1.97;;;22.60;92.30;;;;;;5076666;28;20481;-63
2023/08/01 12:36:33;;;;;;;3.07;2.20;;;22.10;92.40;;;;;;5076226;28;20438;-62
2023/08/01 12:39:00;;;;;;;3.43;1.80;;;21.40;91.50;;;;;;5076604;28;20461;-61
2023/08/01 12:41:27;;;;;;;2.70;1.73;;;20.60;93.10;;;;;;5077152;28;20465;-63
2023/08/01 12:43:54;;;;;;;4.67;2.30;;;20.10;95.30;;;;;;5076568;28;20460;-63
2023/08/01 12:46:20;;;;;;;2.70;1.83;;;19.70;97.10;;;;;;5076281;28;20441;-63
2023/08/01 12:48:47;;;;;;;3.70;1.40;;;19.50;99.20;;;;;;5076311;28;20439;-62
2023/08/01 12:51:15;;;;;;;2.57;1.73;;;19.40;99.90;;;;;;5076293;28;20435;-63
2023/08/01 12:53:43;;;;;;;3.90;2.17;;;19.40;99.90;;;;;;5076541;28;20540;-63